Warm Springs, Nevada
Current Conditions -  °F | °C
As of 6:56 AM on Sunday 21 Dec 2014 (Local Time) from KTPH Reporting Station
Clear Clear  
Wind Chill: 24°   Ceiling: Unl
Heat Index: 30°   Visibility: 10mi
Dew Point: 28°   Wind: 6mph
Humidity: 92%   Direction: 130°SE
Pressure: 30.19"   Gusts: NA
Location:  38.4847°N, 116.233°W
Report Text: KTPH 211456Z AUTO 13005KT 10SM CLR M01/M02 A3019 RMK AO2 SLP236 T10111022 55000
Loading
Personal Weather Stations






























Interactive Weather Map New forecast layout! Learn more

10-Day Weather Forecast

Advertisements
Track Severe Weather on mobile